createdAt,value
2019-03-27T00:01:32.117Z,9.40
2019-03-27T00:03:59.838Z,14.55
2019-03-27T00:06:27.967Z,16.55
2019-03-27T00:08:56.382Z,18.00
2019-03-27T00:11:24.514Z,13.53
2019-03-27T00:13:52.486Z,14.85
2019-03-27T00:16:20.906Z,17.20
2019-03-27T00:18:48.782Z,14.98
2019-03-27T00:21:16.516Z,19.15
2019-03-27T00:23:44.299Z,13.03
2019-03-27T00:26:12.385Z,13.08
2019-03-27T00:28:40.010Z,10.88
2019-03-27T00:31:07.947Z,13.00
2019-03-27T00:33:35.969Z,12.98
2019-03-27T00:36:03.707Z,13.48
2019-03-27T00:38:31.758Z,14.58
2019-03-27T00:40:59.506Z,17.00
2019-03-27T00:43:27.931Z,18.52
2019-03-27T00:45:56.027Z,13.70
2019-03-27T00:48:24.118Z,16.00
2019-03-27T00:50:52.134Z,13.30
2019-03-27T00:53:20.218Z,10.55
2019-03-27T00:55:48.378Z,14.93
2019-03-27T00:58:16.414Z,11.07
2019-03-27T01:01:10.150Z,15.83
2019-03-27T01:03:38.178Z,15.77
2019-03-27T01:06:07.420Z,12.27
2019-03-27T01:08:35.173Z,14.93
2019-03-27T01:11:03.932Z,12.00
2019-03-27T01:13:32.070Z,11.90
2019-03-27T01:15:59.830Z,15.05
2019-03-27T01:18:28.211Z,14.73
2019-03-27T01:20:55.939Z,12.40
2019-03-27T01:23:23.663Z,12.63
2019-03-27T01:25:51.467Z,12.73
2019-03-27T01:28:19.264Z,14.27
2019-03-27T01:30:47.671Z,17.00
2019-03-27T01:33:15.649Z,17.40
2019-03-27T01:35:43.668Z,17.30
2019-03-27T01:38:11.730Z,14.53
2019-03-27T01:40:39.578Z,13.17
2019-03-27T01:43:07.789Z,12.53
2019-03-27T01:45:35.817Z,16.80
2019-03-27T01:48:03.613Z,16.17
2019-03-27T01:50:31.621Z,15.27
2019-03-27T01:53:00.241Z,14.13
2019-03-27T01:55:28.300Z,13.53
2019-03-27T01:57:56.387Z,17.70
2019-03-27T02:00:24.393Z,13.60
2019-03-27T02:02:53.397Z,21.13
2019-03-27T02:05:21.140Z,16.50
2019-03-27T02:07:48.913Z,16.00
2019-03-27T02:10:17.316Z,13.30
2019-03-27T02:12:45.543Z,16.77
2019-03-27T02:15:13.378Z,14.20
2019-03-27T02:17:41.468Z,15.70
2019-03-27T02:20:09.734Z,20.47
2019-03-27T02:22:37.389Z,14.63
2019-03-27T02:25:05.858Z,15.50
2019-03-27T02:27:34.325Z,16.77
2019-03-27T02:30:02.341Z,23.03
2019-03-27T02:32:30.099Z,23.20
2019-03-27T02:34:58.185Z,18.10
2019-03-27T02:37:26.617Z,16.93
2019-03-27T02:39:55.223Z,14.53
2019-03-27T02:42:23.309Z,13.43
2019-03-27T02:44:51.694Z,17.73
2019-03-27T02:47:19.434Z,15.77
2019-03-27T02:49:47.439Z,17.47
2019-03-27T02:52:15.835Z,19.27
2019-03-27T02:54:44.525Z,14.07
2019-03-27T02:57:14.070Z,14.93
2019-03-27T02:59:41.824Z,13.83
2019-03-27T03:02:09.564Z,16.43
2019-03-27T03:04:37.292Z,15.87
2019-03-27T03:07:05.610Z,18.60
2019-03-27T03:09:33.999Z,16.90
2019-03-27T03:12:01.746Z,18.50
2019-03-27T03:14:29.619Z,25.53
2019-03-27T03:16:57.733Z,17.90
2019-03-27T03:19:25.864Z,18.27
2019-03-27T03:21:54.292Z,19.27
2019-03-27T03:24:23.138Z,17.30
2019-03-27T03:26:51.743Z,17.93
2019-03-27T03:29:19.924Z,16.57
2019-03-27T03:31:47.997Z,17.23
2019-03-27T03:34:16.136Z,16.83
2019-03-27T03:36:43.910Z,17.93
2019-03-27T03:39:13.415Z,16.93
2019-03-27T03:41:41.407Z,20.67
2019-03-27T03:44:09.199Z,16.07
2019-03-27T03:46:37.263Z,13.87
2019-03-27T03:49:05.092Z,15.60
2019-03-27T03:51:33.184Z,14.90
2019-03-27T03:54:01.247Z,14.47
2019-03-27T03:56:31.063Z,14.70
2019-03-27T03:59:01.744Z,16.23
2019-03-27T04:01:31.765Z,16.70
2019-03-27T04:04:01.113Z,14.63
2019-03-27T04:06:29.224Z,16.27
2019-03-27T04:08:57.550Z,17.70
2019-03-27T04:11:25.693Z,17.80
2019-03-27T04:13:55.548Z,16.53
2019-03-27T04:16:23.933Z,15.57
2019-03-27T04:18:51.779Z,18.13
2019-03-27T04:21:19.947Z,18.60
2019-03-27T04:23:47.657Z,15.57
2019-03-27T04:26:15.437Z,17.80
2019-03-27T04:28:43.520Z,14.73
2019-03-27T04:31:11.308Z,16.67
2019-03-27T04:33:39.336Z,19.13
2019-03-27T04:36:07.713Z,19.97
2019-03-27T04:38:45.782Z,17.63
2019-03-27T04:41:14.319Z,17.40
2019-03-27T04:43:42.670Z,18.27
2019-03-27T04:46:10.397Z,19.07
2019-03-27T04:48:38.460Z,20.40
2019-03-27T04:51:06.466Z,26.63
2019-03-27T04:53:34.253Z,24.57
2019-03-27T04:56:02.287Z,21.77
2019-03-27T04:58:30.031Z,24.13
2019-03-27T05:00:57.862Z,20.63
2019-03-27T05:03:26.040Z,21.80
2019-03-27T05:05:53.706Z,19.23
2019-03-27T05:08:21.686Z,21.27
2019-03-27T05:10:50.159Z,21.07
2019-03-27T05:13:17.908Z,23.60
2019-03-27T05:15:45.634Z,22.07
2019-03-27T05:18:14.043Z,26.17
2019-03-27T05:20:42.496Z,23.33
2019-03-27T05:23:10.232Z,24.77
2019-03-27T05:25:38.037Z,21.23
2019-03-27T05:28:05.778Z,26.73
2019-03-27T05:30:33.610Z,23.77
2019-03-27T05:33:01.349Z,20.27
2019-03-27T05:35:29.833Z,25.67
2019-03-27T05:37:57.634Z,20.57
2019-03-27T05:40:25.425Z,19.37
2019-03-27T05:43:00.442Z,25.27
2019-03-27T05:45:24.081Z,26.97
2019-03-27T05:47:59.545Z,26.00
2019-03-27T05:50:22.695Z,28.23
2019-03-27T05:52:50.391Z,25.70
2019-03-27T05:55:18.328Z,27.27
2019-03-27T05:57:46.483Z,30.90
2019-03-27T06:00:16.490Z,27.63
2019-03-27T06:02:44.627Z,24.90
2019-03-27T06:05:12.679Z,25.63
2019-03-27T06:07:40.422Z,24.03
2019-03-27T06:10:08.445Z,35.20
2019-03-27T06:12:36.489Z,26.63
2019-03-27T06:15:04.454Z,23.00
2019-03-27T06:17:32.499Z,30.50
2019-03-27T06:20:01.243Z,27.97
2019-03-27T06:22:29.265Z,24.87
2019-03-27T06:24:57.103Z,25.47
2019-03-27T06:27:25.144Z,30.50
2019-03-27T06:29:53.177Z,36.63
2019-03-27T06:32:21.197Z,29.13
2019-03-27T06:34:48.905Z,29.50
2019-03-27T06:37:16.660Z,31.60
2019-03-27T06:39:44.742Z,32.87
2019-03-27T06:42:12.761Z,37.80
2019-03-27T06:44:40.843Z,36.37
2019-03-27T06:47:08.483Z,32.67
2019-03-27T06:49:36.495Z,33.83
2019-03-27T06:52:04.706Z,33.43
2019-03-27T06:54:32.415Z,38.83
2019-03-27T06:57:01.249Z,35.43
2019-03-27T06:59:30.034Z,30.60
2019-03-27T07:01:58.090Z,34.33
2019-03-27T07:04:25.868Z,33.60
2019-03-27T07:06:54.283Z,33.00
2019-03-27T07:09:22.967Z,34.57
2019-03-27T07:11:51.016Z,42.17
2019-03-27T07:14:19.113Z,36.40
2019-03-27T07:16:47.046Z,39.37
2019-03-27T07:19:15.095Z,30.93
2019-03-27T07:21:42.803Z,32.63
2019-03-27T07:24:11.226Z,31.37
2019-03-27T07:26:39.270Z,29.83
2019-03-27T07:29:07.015Z,33.45
2019-03-27T07:31:34.765Z,35.30
2019-03-27T07:34:02.896Z,32.50
2019-03-27T07:36:31.072Z,40.10
2019-03-27T07:39:10.411Z,30.00
2019-03-27T07:41:28.911Z,29.67
2019-03-27T07:43:56.662Z,37.20
2019-03-27T07:46:25.808Z,32.10
2019-03-27T07:48:54.521Z,38.80
2019-03-27T07:51:23.130Z,37.73
2019-03-27T07:53:50.996Z,34.40
2019-03-27T07:56:18.997Z,32.80
2019-03-27T07:58:48.473Z,41.42
2019-03-27T08:01:16.767Z,36.23
2019-03-27T08:03:44.529Z,42.13
2019-03-27T08:06:12.234Z,32.73
2019-03-27T08:08:40.239Z,36.75
2019-03-27T08:11:08.974Z,37.00
2019-03-27T08:13:37.171Z,43.60
2019-03-27T08:16:04.903Z,38.13
2019-03-27T08:18:32.990Z,45.03
2019-03-27T08:21:01.269Z,38.90
2019-03-27T08:23:29.668Z,43.90
2019-03-27T08:25:57.427Z,44.10
2019-03-27T08:28:25.503Z,42.58
2019-03-27T08:30:53.670Z,38.83
2019-03-27T08:33:21.503Z,39.58
2019-03-27T08:35:49.607Z,40.98
2019-03-27T08:38:17.336Z,47.98
2019-03-27T08:40:45.435Z,42.55
2019-03-27T08:43:21.296Z,41.23
2019-03-27T08:45:42.730Z,39.73
2019-03-27T08:48:10.505Z,46.18
2019-03-27T08:50:38.247Z,37.23
2019-03-27T08:53:06.028Z,35.10
2019-03-27T08:55:33.762Z,40.58
2019-03-27T08:58:02.110Z,44.75
2019-03-27T09:00:47.240Z,44.93
2019-03-27T09:03:15.411Z,41.50
2019-03-27T09:05:43.142Z,43.33
2019-03-27T09:08:10.897Z,43.35
2019-03-27T09:10:38.622Z,39.00
2019-03-27T09:13:06.358Z,41.53
2019-03-27T09:15:34.127Z,41.60
2019-03-27T09:18:01.846Z,44.95
2019-03-27T09:20:29.743Z,41.28
2019-03-27T09:22:57.711Z,37.75
2019-03-27T09:25:25.788Z,40.80
2019-03-27T09:27:53.554Z,39.88
2019-03-27T09:30:22.420Z,38.30
2019-03-27T09:32:50.526Z,40.40
2019-03-27T09:35:18.345Z,39.73
2019-03-27T09:37:46.372Z,38.17
2019-03-27T09:43:17.212Z,37.93
2019-03-27T09:45:46.047Z,43.68
2019-03-27T09:48:13.783Z,38.53
2019-03-27T09:50:42.157Z,38.40
2019-03-27T09:53:10.555Z,36.42
2019-03-27T09:55:39.122Z,38.08
2019-03-27T09:58:06.851Z,35.83
2019-03-27T10:01:09.242Z,37.95
2019-03-27T10:03:37.430Z,45.63
2019-03-27T10:06:05.951Z,41.08
2019-03-27T10:08:33.703Z,41.98
2019-03-27T10:11:01.769Z,36.40
2019-03-27T10:13:29.469Z,41.48
2019-03-27T10:15:57.585Z,49.53
2019-03-27T10:18:25.308Z,45.50
2019-03-27T10:20:53.870Z,44.42
2019-03-27T10:23:22.249Z,44.60
2019-03-27T10:25:50.330Z,46.45
2019-03-27T10:28:18.490Z,47.05
2019-03-27T10:30:46.126Z,45.12
2019-03-27T10:33:15.362Z,43.50
2019-03-27T10:35:43.653Z,44.83
2019-03-27T10:38:11.807Z,49.27
2019-03-27T10:40:40.270Z,43.83
2019-03-27T10:43:08.003Z,44.80
2019-03-27T10:45:35.771Z,51.58
2019-03-27T10:48:03.517Z,43.42
2019-03-27T10:50:31.652Z,41.85
2019-03-27T10:52:59.304Z,45.25
2019-03-27T10:55:27.319Z,44.67
2019-03-27T10:57:55.320Z,45.05
2019-03-27T11:00:23.378Z,46.45
2019-03-27T11:02:51.462Z,37.63
2019-03-27T11:05:19.197Z,37.00
2019-03-27T11:07:46.975Z,35.00
2019-03-27T11:10:14.983Z,36.17
2019-03-27T11:12:43.046Z,36.00
2019-03-27T11:15:11.445Z,35.92
2019-03-27T11:17:39.823Z,33.67
2019-03-27T11:20:08.073Z,36.90
2019-03-27T11:22:36.461Z,31.00
2019-03-27T11:25:05.751Z,31.97
2019-03-27T11:27:33.523Z,31.57
2019-03-27T11:30:01.283Z,34.80
2019-03-27T11:32:29.721Z,34.90
2019-03-27T11:34:57.695Z,34.00
2019-03-27T11:37:25.755Z,35.52
2019-03-27T11:39:54.558Z,31.07
2019-03-27T11:42:22.640Z,35.88
2019-03-27T11:44:50.381Z,28.17
2019-03-27T11:47:18.683Z,29.70
2019-03-27T11:49:46.786Z,28.90
2019-03-27T11:52:14.831Z,28.10
2019-03-27T11:54:42.948Z,34.50
2019-03-27T11:57:10.955Z,32.70
2019-03-27T11:59:38.962Z,30.85
2019-03-27T12:02:06.675Z,31.40
2019-03-27T12:04:34.693Z,28.02
2019-03-27T12:07:02.700Z,28.32
2019-03-27T12:09:30.767Z,33.05
2019-03-27T12:11:58.792Z,29.42
2019-03-27T12:14:26.795Z,32.40
2019-03-27T12:16:54.823Z,29.75
2019-03-27T12:19:22.667Z,27.87
2019-03-27T12:21:50.384Z,26.95
2019-03-27T12:24:18.128Z,30.35
2019-03-27T12:26:45.851Z,28.00
2019-03-27T12:29:13.603Z,31.55
2019-03-27T12:31:41.611Z,30.55
2019-03-27T12:34:10.387Z,28.90
2019-03-27T12:36:38.199Z,29.30
2019-03-27T12:39:06.918Z,27.30
2019-03-27T12:41:34.950Z,27.45
2019-03-27T12:44:02.825Z,32.55
2019-03-27T12:46:31.727Z,31.25
2019-03-27T12:48:59.471Z,29.90
2019-03-27T12:51:27.223Z,28.83
2019-03-27T12:53:55.469Z,29.98
2019-03-27T12:56:23.123Z,28.17
2019-03-27T12:58:51.283Z,27.75
2019-03-27T13:01:19.932Z,28.02
2019-03-27T13:03:47.816Z,30.62
2019-03-27T13:06:15.923Z,32.78
2019-03-27T13:08:43.791Z,28.85
2019-03-27T13:11:11.510Z,29.85
2019-03-27T13:13:39.996Z,30.02
2019-03-27T13:16:07.869Z,31.80
2019-03-27T13:18:37.301Z,32.30
2019-03-27T13:21:06.171Z,30.85
2019-03-27T13:23:34.934Z,28.98
2019-03-27T13:26:02.975Z,29.40
2019-03-27T13:28:31.039Z,34.67
2019-03-27T13:30:58.782Z,25.97
2019-03-27T13:33:26.410Z,22.85
2019-03-27T13:35:54.820Z,23.95
2019-03-27T13:38:23.138Z,23.85
2019-03-27T13:40:50.899Z,23.73
2019-03-27T13:43:18.944Z,25.60
2019-03-27T13:45:46.714Z,20.00
2019-03-27T13:48:14.482Z,23.42
2019-03-27T13:50:42.495Z,21.35
2019-03-27T13:53:12.384Z,21.48
2019-03-27T13:55:40.119Z,24.63
2019-03-27T13:58:07.883Z,24.75
2019-03-27T14:00:36.634Z,22.13
2019-03-27T14:03:04.382Z,16.35
2019-03-27T14:05:32.173Z,19.65
2019-03-27T14:08:00.003Z,19.57
2019-03-27T14:10:28.104Z,21.70
2019-03-27T14:12:56.606Z,22.22
2019-03-27T14:15:24.350Z,24.30
2019-03-27T14:17:52.358Z,21.60
2019-03-27T14:20:20.484Z,21.97
2019-03-27T14:22:48.219Z,18.35
2019-03-27T14:25:16.578Z,19.62
2019-03-27T14:27:45.541Z,19.25
2019-03-27T14:30:16.194Z,21.70
2019-03-27T14:32:44.294Z,22.52
2019-03-27T14:35:12.868Z,19.37
2019-03-27T14:37:40.648Z,21.57
2019-03-27T14:40:09.233Z,19.75
2019-03-27T14:42:37.297Z,23.75
2019-03-27T14:45:07.362Z,26.93
2019-03-27T14:47:35.894Z,22.50
2019-03-27T14:50:04.480Z,21.05
2019-03-27T14:52:32.214Z,21.68
2019-03-27T14:55:02.979Z,21.35
2019-03-27T14:57:31.198Z,17.57
2019-03-27T14:59:59.230Z,24.90
2019-03-27T15:02:27.376Z,21.33
2019-03-27T15:04:55.734Z,25.02
2019-03-27T15:07:23.843Z,28.35
2019-03-27T15:09:51.788Z,22.93
2019-03-27T15:12:19.530Z,22.32
2019-03-27T15:14:47.911Z,22.80
2019-03-27T15:17:15.801Z,21.25
2019-03-27T15:19:43.569Z,21.52
2019-03-27T15:22:21.729Z,19.30
2019-03-27T15:24:41.286Z,20.95
2019-03-27T15:27:09.649Z,25.50
2019-03-27T15:29:37.716Z,22.98
2019-03-27T15:32:05.640Z,20.30
2019-03-27T15:34:34.181Z,22.67
2019-03-27T15:37:01.922Z,22.37
2019-03-27T15:39:30.382Z,25.17
2019-03-27T15:41:58.918Z,18.92
2019-03-27T15:44:26.969Z,17.85
2019-03-27T15:46:55.083Z,24.43
2019-03-27T15:49:23.150Z,18.62
2019-03-27T15:51:51.535Z,25.48
2019-03-27T15:54:19.249Z,19.20
2019-03-27T15:56:47.443Z,23.52
2019-03-27T15:59:15.682Z,20.00
2019-03-27T16:01:43.761Z,22.45
2019-03-27T16:04:11.813Z,22.02
2019-03-27T16:06:39.898Z,17.23
2019-03-27T16:09:11.542Z,21.42
2019-03-27T16:11:39.321Z,18.95
2019-03-27T16:14:07.603Z,19.65
2019-03-27T16:16:35.709Z,24.50
2019-03-27T16:19:03.401Z,18.67
2019-03-27T16:21:31.419Z,22.45
2019-03-27T16:24:06.198Z,20.85
2019-03-27T16:26:29.293Z,13.95
2019-03-27T16:28:56.994Z,14.75
2019-03-27T16:31:25.355Z,19.60
2019-03-27T16:33:53.186Z,17.32
2019-03-27T16:36:21.314Z,20.65
2019-03-27T16:38:49.343Z,18.75
2019-03-27T16:41:17.080Z,13.90
2019-03-27T16:43:45.211Z,14.73
2019-03-27T16:46:13.363Z,17.10
2019-03-27T16:48:41.381Z,16.07
2019-03-27T16:51:09.756Z,13.93
2019-03-27T16:53:37.860Z,18.65
2019-03-27T16:56:05.734Z,15.53
2019-03-27T16:58:34.157Z,14.95
2019-03-27T17:01:02.761Z,14.55
2019-03-27T17:03:31.162Z,14.05
2019-03-27T17:05:58.909Z,16.27
2019-03-27T17:08:26.904Z,15.70
2019-03-27T17:10:54.650Z,12.60
2019-03-27T17:13:22.760Z,14.30
2019-03-27T17:15:50.399Z,12.80
2019-03-27T17:18:18.167Z,12.28
2019-03-27T17:20:46.274Z,13.13
2019-03-27T17:23:18.497Z,14.13
2019-03-27T17:25:45.035Z,16.60
2019-03-27T17:28:13.237Z,13.10
2019-03-27T17:30:40.976Z,12.63
2019-03-27T17:33:08.726Z,11.12
2019-03-27T17:35:36.801Z,14.70
2019-03-27T17:38:04.580Z,17.45
2019-03-27T17:40:32.311Z,21.82
2019-03-27T17:43:00.027Z,11.28
2019-03-27T17:45:28.212Z,14.63
2019-03-27T17:47:55.972Z,12.43
2019-03-27T17:50:24.029Z,17.50
2019-03-27T17:52:52.190Z,11.73
2019-03-27T17:55:19.901Z,12.75
2019-03-27T17:57:48.031Z,14.33
2019-03-27T18:00:22.848Z,15.55
2019-03-27T18:02:50.606Z,16.73
2019-03-27T18:05:18.958Z,17.62
2019-03-27T18:07:46.611Z,14.83
2019-03-27T18:10:14.730Z,12.18
2019-03-27T18:12:42.829Z,13.75
2019-03-27T18:15:10.666Z,15.32
2019-03-27T18:17:38.422Z,14.50
2019-03-27T18:20:06.423Z,13.90
2019-03-27T18:22:34.628Z,13.48
2019-03-27T18:25:02.898Z,14.43
2019-03-27T18:27:30.978Z,11.93
2019-03-27T18:29:58.695Z,13.55
2019-03-27T18:32:26.823Z,13.68
2019-03-27T18:34:54.565Z,12.98
2019-03-27T18:37:22.972Z,11.43
2019-03-27T18:39:50.776Z,11.03
2019-03-27T18:42:18.812Z,13.85
2019-03-27T18:44:46.979Z,12.80
2019-03-27T18:47:15.950Z,13.35
2019-03-27T18:49:46.210Z,10.98
2019-03-27T18:52:13.943Z,11.93
2019-03-27T18:54:41.994Z,15.13
2019-03-27T18:57:10.179Z,13.60
2019-03-27T18:59:38.519Z,10.93
2019-03-27T19:02:06.673Z,11.25
2019-03-27T19:04:35.505Z,15.05
2019-03-27T19:07:03.999Z,10.38
2019-03-27T19:09:32.290Z,15.00
2019-03-27T19:12:00.642Z,13.58
2019-03-27T19:14:28.395Z,14.63
2019-03-27T19:16:56.582Z,14.38
2019-03-27T19:19:24.973Z,11.57
2019-03-27T19:21:52.698Z,13.58
2019-03-27T19:24:20.523Z,11.43
2019-03-27T19:26:48.590Z,14.93
2019-03-27T19:29:16.755Z,16.80
2019-03-27T19:31:44.911Z,10.55
2019-03-27T19:34:13.234Z,13.65
2019-03-27T19:36:41.805Z,12.68
2019-03-27T19:39:10.058Z,15.65
2019-03-27T19:41:37.879Z,15.13
2019-03-27T19:44:06.346Z,14.33
2019-03-27T19:46:34.271Z,14.33
2019-03-27T19:49:02.102Z,15.32
2019-03-27T19:51:29.816Z,12.75
2019-03-27T19:53:57.836Z,12.35
2019-03-27T19:56:25.576Z,13.22
2019-03-27T19:58:53.299Z,13.88
2019-03-27T20:01:21.047Z,15.88
2019-03-27T20:03:49.133Z,15.45
2019-03-27T20:06:17.281Z,15.75
2019-03-27T20:08:45.855Z,19.07
2019-03-27T20:11:14.813Z,26.12
2019-03-27T20:13:42.914Z,25.35
2019-03-27T20:16:10.677Z,19.67
2019-03-27T20:18:39.006Z,18.62
2019-03-27T20:21:07.713Z,20.70
2019-03-27T20:23:35.351Z,22.02
2019-03-27T20:26:03.123Z,30.68
2019-03-27T20:28:31.534Z,39.08
2019-03-27T20:30:59.490Z,34.78
2019-03-27T20:33:27.375Z,34.65
2019-03-27T20:35:55.991Z,32.17
2019-03-27T20:38:24.334Z,22.05
2019-03-27T20:40:52.102Z,18.25
2019-03-27T20:43:20.910Z,18.32
2019-03-27T20:45:48.679Z,16.87
2019-03-27T20:48:16.470Z,17.23
2019-03-27T20:50:44.516Z,18.17
2019-03-27T20:53:12.261Z,16.82
2019-03-27T20:55:40.202Z,17.32
2019-03-27T20:58:08.295Z,19.37
2019-03-27T21:00:36.111Z,17.80
2019-03-27T21:03:03.899Z,17.90
2019-03-27T21:05:34.942Z,19.70
2019-03-27T21:08:02.362Z,18.37
2019-03-27T21:10:30.075Z,16.93
2019-03-27T21:12:58.453Z,16.60
2019-03-27T21:15:26.682Z,18.15
2019-03-27T21:17:54.425Z,15.80
2019-03-27T21:20:22.753Z,20.20
2019-03-27T21:22:51.226Z,20.00
2019-03-27T21:25:18.957Z,17.80
2019-03-27T21:27:47.294Z,18.92
2019-03-27T21:30:15.382Z,19.02
2019-03-27T21:32:43.746Z,20.70
2019-03-27T21:35:12.294Z,23.90
2019-03-27T21:37:40.632Z,20.97
2019-03-27T21:40:08.814Z,21.52
2019-03-27T21:42:36.814Z,22.48
2019-03-27T21:45:06.570Z,19.75
2019-03-27T21:47:34.766Z,16.90
2019-03-27T21:50:02.966Z,21.30
2019-03-27T21:52:31.087Z,18.80
2019-03-27T21:54:58.839Z,21.55
2019-03-27T21:57:26.973Z,20.52
2019-03-27T21:59:55.422Z,19.07
2019-03-27T22:02:23.085Z,18.87
2019-03-27T22:04:51.196Z,17.40
2019-03-27T22:07:19.447Z,18.67
2019-03-27T22:09:47.678Z,18.77
2019-03-27T22:12:15.562Z,19.50
2019-03-27T22:14:43.457Z,18.95
2019-03-27T22:17:12.882Z,21.02
2019-03-27T22:19:40.891Z,23.75
2019-03-27T22:22:09.635Z,21.43
2019-03-27T22:24:37.912Z,20.13
2019-03-27T22:27:05.630Z,24.85
2019-03-27T22:29:33.376Z,23.70
2019-03-27T22:32:01.101Z,18.92
2019-03-27T22:34:28.830Z,15.40
2019-03-27T22:36:56.835Z,18.00
2019-03-27T22:39:24.950Z,24.30
2019-03-27T22:41:52.683Z,19.85
2019-03-27T22:44:20.727Z,17.82
2019-03-27T22:46:48.471Z,19.40
2019-03-27T22:49:16.240Z,17.97
2019-03-27T22:51:44.729Z,18.30
2019-03-27T22:54:12.483Z,15.30
2019-03-27T22:56:40.963Z,18.55
2019-03-27T22:59:08.706Z,20.48
2019-03-27T23:01:43.604Z,18.37
2019-03-27T23:04:11.855Z,20.87
2019-03-27T23:06:39.691Z,19.60
2019-03-27T23:09:07.575Z,19.27
2019-03-27T23:11:35.780Z,16.77
2019-03-27T23:14:03.892Z,21.07
2019-03-27T23:16:31.745Z,23.40
2019-03-27T23:18:59.547Z,17.80
2019-03-27T23:21:27.602Z,22.57
2019-03-27T23:23:55.340Z,21.03
2019-03-27T23:26:23.417Z,20.40
2019-03-27T23:28:51.492Z,18.63
2019-03-27T23:31:19.208Z,18.33
2019-03-27T23:33:46.987Z,21.57
2019-03-27T23:36:14.815Z,19.63
2019-03-27T23:38:45.106Z,23.00
2019-03-27T23:41:16.136Z,23.87
2019-03-27T23:43:46.087Z,18.67
2019-03-27T23:46:15.596Z,17.27
2019-03-27T23:48:43.698Z,17.37
2019-03-27T23:51:11.513Z,26.23
2019-03-27T23:53:39.319Z,23.67
2019-03-27T23:56:16.463Z,27.37
2019-03-27T23:58:37.033Z,19.67
